Satanta, KS

6:26 PM CST en Noviembre 24, 2014 (GMT -0600)
Country | Change Station
CLOSE
Current Station
Estación meteorológica personal
Location: Kismet, KS
Altura: 2791 ft
Estaciones meteorológicas cercanas

Alt 2791 ft 37.26 °N, 100.91 °W | Updated 29 seconds ago

Muy nublado
Muy nublado
43.0 ° F
Sensación térmica 37 ° F
N
10.0
Viento Variable Viento desde NE
Gusts 11.0 mph

Hoy
Alta -- | Baja -- ° F
--% Posibilidad de precipitaciones
Ayer
Alta -- | Baja -- ° F
Precip. -- pul
7:32 AM 5:28 PM
Creciente, 8% visible
Presión 30.07 pul
Visibilidad 10.0 Millas
Nubes Despejado
Vientos helados 37 ° F
Punto de rocío 20 ° F
Humedad 39%
Precipitaciones 0.00 pul
Espesor de la nieve No disponible.
UV 0 de una escala de 12
Polen .10 de una escala de 12
Calidad del aire No disponible.
Flu Activity No disponible.
METAR KLBL 250015Z AUTO 32009KT 10SM CLR 03/M13 A3007 RMK AO1

More Conditions Fewer Conditions

Presión 30.07 pul
Visibilidad 10.0 Millas
Nubes Despejado
Vientos helados 37 ° F
Punto de rocío 20 ° F
Humedad 39%
Precipitaciones 0.00 pul
Espesor de la nieve No disponible.
UV 0 de una escala de 12
Polen .10 de una escala de 12
Calidad del aire No disponible.
Flu Activity No disponible.
METAR KLBL 250015Z AUTO 32009KT 10SM CLR 03/M13 A3007 RMK AO1

More Conditions Fewer Conditions

10-Day Weather Forecast

Almanac

Astronomía

Nov. 24, 2014 Salida Puesta
Hora real
Crepúsculo civil
Crepúsculo náutico
Crepúsculo astronómico
Luna
Horas de luz
Horas de luz
Tomorrow will be .
, % of the Moon is Illuminated

Extremos de hoy

Máximos del estado Bajos del estado

Community

WunderPhotos

Upload Photos

1,773,442 ¡fotos cargadas!

WunderBlogs® & News

Nearby

Calidad del aire

  Calidad del aire Índice AQ Contaminante
Not available.

Grosos de nieve

Estación Profundido Altura

Actividad de terremotos

Ciudad Distance Mag. Tiempo y dato
Magnitud mínima muestra es 2,5.

Temperaturas de aguas costeras

Lugar Temperatura

Estaciones meteorológicas cercanas